createdAt,value
2018-02-20T00:00:21.579Z,40.17
2018-02-20T00:02:49.872Z,45.20
2018-02-20T00:05:18.199Z,46.40
2018-02-20T00:07:46.699Z,43.97
2018-02-20T00:10:14.987Z,39.70
2018-02-20T00:12:43.292Z,41.20
2018-02-20T00:15:13.179Z,38.77
2018-02-20T00:17:41.559Z,42.83
2018-02-20T00:20:10.091Z,42.67
2018-02-20T00:22:39.365Z,42.97
2018-02-20T00:25:07.646Z,40.30
2018-02-20T00:27:36.768Z,38.90
2018-02-20T00:30:05.058Z,35.53
2018-02-20T00:32:33.344Z,39.40
2018-02-20T00:35:01.677Z,40.90
2018-02-20T00:37:30.772Z,39.10
2018-02-20T00:39:59.964Z,40.40
2018-02-20T00:42:28.268Z,45.17
2018-02-20T00:44:57.928Z,42.40
2018-02-20T00:47:26.237Z,45.60
2018-02-20T00:49:54.896Z,44.83
2018-02-20T00:52:23.173Z,46.33
2018-02-20T00:54:51.480Z,42.40
2018-02-20T00:57:19.879Z,43.50
2018-02-20T00:59:49.670Z,42.77
2018-02-20T01:02:18.381Z,39.87
2018-02-20T01:04:47.775Z,43.73
2018-02-20T01:07:16.074Z,40.40
2018-02-20T01:09:45.112Z,40.03
2018-02-20T01:12:13.488Z,40.87
2018-02-20T01:14:41.760Z,41.47
2018-02-20T01:17:10.769Z,42.90
2018-02-20T01:19:39.096Z,46.10
2018-02-20T01:22:08.464Z,43.03
2018-02-20T01:24:37.456Z,42.37
2018-02-20T01:27:05.745Z,46.53
2018-02-20T01:29:34.548Z,40.97
2018-02-20T01:32:03.708Z,42.50
2018-02-20T01:34:32.400Z,37.77
2018-02-20T01:37:00.680Z,45.17
2018-02-20T01:39:28.987Z,43.40
2018-02-20T01:41:57.291Z,43.37
2018-02-20T01:44:25.587Z,42.37
2018-02-20T01:46:53.896Z,42.07
2018-02-20T01:49:22.960Z,45.57
2018-02-20T01:51:51.235Z,43.97
2018-02-20T01:54:19.750Z,46.00
2018-02-20T01:56:48.048Z,44.77
2018-02-20T01:59:16.781Z,41.33
2018-02-20T02:01:46.608Z,41.17
2018-02-20T02:04:15.487Z,39.10
2018-02-20T02:06:43.795Z,43.43
2018-02-20T02:09:12.268Z,38.00
2018-02-20T02:11:40.557Z,36.93
2018-02-20T02:14:09.436Z,43.67
2018-02-20T02:16:37.735Z,43.47
2018-02-20T02:19:06.049Z,45.70
2018-02-20T02:21:35.188Z,48.47
2018-02-20T02:24:03.520Z,50.10
2018-02-20T02:26:32.596Z,48.93
2018-02-20T02:29:00.873Z,49.03
2018-02-20T02:31:29.188Z,45.13
2018-02-20T02:33:58.548Z,43.80
2018-02-20T02:36:27.601Z,40.87
2018-02-20T02:38:55.872Z,42.83
2018-02-20T02:41:24.155Z,44.20
2018-02-20T02:43:52.454Z,49.17
2018-02-20T02:46:21.358Z,43.07
2018-02-20T02:48:49.650Z,45.00
2018-02-20T02:51:18.015Z,43.97
2018-02-20T02:53:47.213Z,40.93
2018-02-20T02:56:15.826Z,45.97
2018-02-20T02:58:44.109Z,46.27
2018-02-20T03:01:14.002Z,37.27
2018-02-20T03:03:42.498Z,42.60
2018-02-20T03:06:10.988Z,45.40
2018-02-20T03:08:39.942Z,45.57
2018-02-20T03:11:08.419Z,46.37
2018-02-20T03:13:36.716Z,45.63
2018-02-20T03:16:05.113Z,49.00
2018-02-20T03:18:33.810Z,48.80
2018-02-20T03:21:02.908Z,43.07
2018-02-20T03:23:31.200Z,51.10
2018-02-20T03:26:00.332Z,46.80
2018-02-20T03:28:28.612Z,45.87
2018-02-20T03:30:56.916Z,44.17
2018-02-20T03:33:25.496Z,52.80
2018-02-20T03:35:54.378Z,44.47
2018-02-20T03:38:23.077Z,51.97
2018-02-20T03:40:51.407Z,50.60
2018-02-20T03:43:19.689Z,48.43
2018-02-20T03:45:47.973Z,51.37
2018-02-20T03:48:16.879Z,44.77
2018-02-20T03:50:45.829Z,50.70
2018-02-20T03:53:14.902Z,52.57
2018-02-20T03:55:44.788Z,46.77
2018-02-20T03:58:13.401Z,49.20
2018-02-20T04:00:42.148Z,45.17
2018-02-20T04:03:11.668Z,47.13
2018-02-20T04:05:40.204Z,50.23
2018-02-20T04:08:09.669Z,44.50
2018-02-20T04:10:37.980Z,49.83
2018-02-20T04:13:06.258Z,49.37
2018-02-20T04:15:34.552Z,49.40
2018-02-20T04:18:04.021Z,50.47
2018-02-20T04:20:32.827Z,53.00
2018-02-20T04:23:01.625Z,51.63
2018-02-20T04:25:29.923Z,45.17
2018-02-20T04:27:58.217Z,47.17
2018-02-20T04:30:27.059Z,52.67
2018-02-20T04:32:55.365Z,40.60
2018-02-20T04:35:24.936Z,43.77
2018-02-20T04:37:53.312Z,46.57
2018-02-20T04:40:22.129Z,46.17
2018-02-20T04:42:52.799Z,46.60
2018-02-20T04:45:21.089Z,46.50
2018-02-20T04:47:49.389Z,49.60
2018-02-20T04:50:17.758Z,51.70
2018-02-20T04:52:46.083Z,51.30
2018-02-20T04:55:15.845Z,48.20
2018-02-20T04:57:44.216Z,53.70
2018-02-20T05:00:13.078Z,51.63
2018-02-20T05:02:42.133Z,54.63
2018-02-20T05:05:10.791Z,47.50
2018-02-20T05:07:39.836Z,49.70
2018-02-20T05:10:08.136Z,49.40
2018-02-20T05:12:37.267Z,44.23
2018-02-20T05:15:05.545Z,46.70
2018-02-20T05:17:33.828Z,46.93
2018-02-20T05:20:02.150Z,45.53
2018-02-20T05:22:31.344Z,49.47
2018-02-20T05:24:59.716Z,48.90
2018-02-20T05:27:28.056Z,50.87
2018-02-20T05:29:56.357Z,58.60
2018-02-20T05:32:24.663Z,53.27
2018-02-20T05:34:53.727Z,53.30
2018-02-20T05:37:22.124Z,55.40
2018-02-20T05:39:50.451Z,53.73
2018-02-20T05:42:18.744Z,53.27
2018-02-20T05:44:47.024Z,51.73
2018-02-20T05:47:15.305Z,49.47
2018-02-20T05:49:43.633Z,53.60
2018-02-20T05:52:12.672Z,52.20
2018-02-20T05:54:42.127Z,69.20
2018-02-20T05:57:11.480Z,52.40
2018-02-20T05:59:39.776Z,59.80
2018-02-20T06:02:08.061Z,52.77
2018-02-20T06:04:36.410Z,52.40
2018-02-20T06:07:04.688Z,53.97
2018-02-20T06:09:33.496Z,55.90
2018-02-20T06:12:02.183Z,52.40
2018-02-20T06:14:30.489Z,50.00
2018-02-20T06:16:58.770Z,54.90
2018-02-20T06:19:27.450Z,51.90
2018-02-20T06:21:55.733Z,49.00
2018-02-20T06:24:24.285Z,46.23
2018-02-20T06:26:52.659Z,51.20
2018-02-20T06:29:20.940Z,48.03
2018-02-20T06:31:49.220Z,49.67
2018-02-20T06:34:17.539Z,51.80
2018-02-20T06:36:46.749Z,40.90
2018-02-20T06:39:15.800Z,47.30
2018-02-20T06:41:44.121Z,53.93
2018-02-20T06:44:13.601Z,52.27
2018-02-20T06:46:41.892Z,53.97
2018-02-20T06:49:10.276Z,49.13
2018-02-20T06:51:39.862Z,46.57
2018-02-20T06:54:08.148Z,52.60
2018-02-20T06:56:36.529Z,46.37
2018-02-20T06:59:04.767Z,50.47
2018-02-20T07:01:33.051Z,50.27
2018-02-20T07:04:01.373Z,48.70
2018-02-20T07:06:30.135Z,48.63
2018-02-20T07:08:59.060Z,49.93
2018-02-20T07:11:28.304Z,53.07
2018-02-20T07:13:56.581Z,46.17
2018-02-20T07:16:25.181Z,46.73
2018-02-20T07:18:53.780Z,51.83
2018-02-20T07:21:22.933Z,53.33
2018-02-20T07:23:51.203Z,46.53
2018-02-20T07:26:19.515Z,49.53
2018-02-20T07:28:48.741Z,50.23
2018-02-20T07:31:17.192Z,48.17
2018-02-20T07:33:45.492Z,52.00
2018-02-20T07:36:14.464Z,47.23
2018-02-20T07:38:43.036Z,43.97
2018-02-20T07:41:11.932Z,54.73
2018-02-20T07:43:41.057Z,52.30
2018-02-20T07:46:09.861Z,47.40
2018-02-20T07:48:38.209Z,48.00
2018-02-20T07:51:06.518Z,46.93
2018-02-20T07:53:34.875Z,53.57
2018-02-20T07:56:03.472Z,47.90
2018-02-20T07:58:32.079Z,51.33
2018-02-20T08:01:01.238Z,42.70
2018-02-20T08:03:30.449Z,53.73
2018-02-20T08:05:59.043Z,48.53
2018-02-20T08:08:27.663Z,44.97
2018-02-20T08:10:56.767Z,49.23
2018-02-20T08:13:25.041Z,45.80
2018-02-20T08:15:54.810Z,46.77
2018-02-20T08:18:23.606Z,44.97
2018-02-20T08:20:52.692Z,42.47
2018-02-20T08:23:21.177Z,47.90
2018-02-20T08:25:49.474Z,44.00
2018-02-20T08:28:17.812Z,42.67
2018-02-20T08:30:46.534Z,43.13
2018-02-20T08:33:15.337Z,41.10
2018-02-20T08:35:43.806Z,41.70
2018-02-20T08:38:12.087Z,43.10
2018-02-20T08:40:41.058Z,39.03
2018-02-20T08:43:09.637Z,38.47
2018-02-20T08:45:37.921Z,43.37
2018-02-20T08:48:06.187Z,45.70
2018-02-20T08:50:34.569Z,46.63
2018-02-20T08:53:03.682Z,39.20
2018-02-20T08:55:32.144Z,37.90
2018-02-20T08:58:00.560Z,34.90
2018-02-20T09:00:28.864Z,35.67
2018-02-20T09:02:58.016Z,38.37
2018-02-20T09:05:26.401Z,33.57
2018-02-20T09:07:54.987Z,36.83
2018-02-20T09:10:23.887Z,33.47
2018-02-20T09:12:52.335Z,42.13
2018-02-20T09:15:21.561Z,40.43
2018-02-20T09:17:50.456Z,39.30
2018-02-20T09:20:18.748Z,42.37
2018-02-20T09:22:47.277Z,43.73
2018-02-20T09:25:15.552Z,40.60
2018-02-20T09:27:44.011Z,40.77
2018-02-20T09:30:13.152Z,37.07
2018-02-20T09:32:41.483Z,37.07
2018-02-20T09:35:10.627Z,40.70
2018-02-20T09:37:38.952Z,38.93
2018-02-20T09:40:07.992Z,40.63
2018-02-20T09:42:36.453Z,36.97
2018-02-20T09:45:04.739Z,41.00
2018-02-20T09:47:33.026Z,39.77
2018-02-20T09:50:01.769Z,40.03
2018-02-20T09:52:30.549Z,38.40
2018-02-20T09:54:58.916Z,36.17
2018-02-20T09:57:27.240Z,38.87
2018-02-20T09:59:56.415Z,38.00
2018-02-20T10:02:24.706Z,34.27
2018-02-20T10:04:54.144Z,31.90
2018-02-20T10:07:23.207Z,33.87
2018-02-20T10:09:53.088Z,33.30
2018-02-20T10:12:22.069Z,31.63
2018-02-20T10:14:50.869Z,31.80
2018-02-20T10:17:19.228Z,32.50
2018-02-20T10:19:47.835Z,31.87
2018-02-20T10:22:16.110Z,35.77
2018-02-20T10:24:44.809Z,32.50
2018-02-20T10:27:13.580Z,32.87
2018-02-20T10:29:41.968Z,33.73
2018-02-20T10:32:10.251Z,33.30
2018-02-20T10:34:38.559Z,30.63
2018-02-20T10:37:07.697Z,30.93
2018-02-20T10:39:37.260Z,30.17
2018-02-20T10:42:06.342Z,27.30
2018-02-20T10:44:34.671Z,31.93
2018-02-20T10:47:02.941Z,25.90
2018-02-20T10:49:31.556Z,28.30
2018-02-20T10:51:59.832Z,29.10
2018-02-20T10:54:28.911Z,28.47
2018-02-20T10:56:57.355Z,27.67
2018-02-20T10:59:26.921Z,28.53
2018-02-20T11:01:55.223Z,30.20
2018-02-20T11:04:23.508Z,29.40
2018-02-20T11:06:51.780Z,30.20
2018-02-20T11:09:20.119Z,28.83
2018-02-20T11:11:48.393Z,26.97
2018-02-20T11:14:16.803Z,29.30
2018-02-20T11:16:45.088Z,30.40
2018-02-20T11:19:13.778Z,30.90
2018-02-20T11:21:42.725Z,30.67
2018-02-20T11:24:11.059Z,28.57
2018-02-20T11:26:39.342Z,29.80
2018-02-20T11:29:08.442Z,31.17
2018-02-20T11:31:37.477Z,32.77
2018-02-20T11:34:06.223Z,32.00
2018-02-20T11:36:35.065Z,31.67
2018-02-20T11:39:03.713Z,31.37
2018-02-20T11:41:34.288Z,33.40
2018-02-20T11:44:04.102Z,31.97
2018-02-20T11:46:32.478Z,36.03
2018-02-20T11:49:00.885Z,33.77
2018-02-20T11:51:29.169Z,34.77
2018-02-20T11:53:57.431Z,36.50
2018-02-20T11:56:25.747Z,39.23
2018-02-20T11:58:55.485Z,38.47
2018-02-20T12:01:23.763Z,38.70
2018-02-20T12:03:52.160Z,36.27
2018-02-20T12:06:20.535Z,36.10
2018-02-20T12:08:49.672Z,38.70
2018-02-20T12:11:18.684Z,35.83
2018-02-20T12:13:47.230Z,38.07
2018-02-20T12:16:15.556Z,38.17
2018-02-20T12:18:45.559Z,38.17
2018-02-20T12:21:14.498Z,35.73
2018-02-20T12:23:42.760Z,36.87
2018-02-20T12:26:11.059Z,37.73
2018-02-20T12:28:39.636Z,38.40
2018-02-20T12:31:08.032Z,41.67
2018-02-20T12:33:36.306Z,36.50
2018-02-20T12:36:04.589Z,40.43
2018-02-20T12:38:32.854Z,38.20
2018-02-20T12:41:01.344Z,37.43
2018-02-20T12:43:29.611Z,38.90
2018-02-20T12:45:58.660Z,34.00
2018-02-20T12:48:27.224Z,39.73
2018-02-20T12:50:55.952Z,34.57
2018-02-20T12:53:25.028Z,36.37
2018-02-20T12:55:54.071Z,34.70
2018-02-20T12:58:22.332Z,35.10
2018-02-20T13:00:50.648Z,32.53
2018-02-20T13:03:18.960Z,36.80
2018-02-20T13:05:47.341Z,32.53
2018-02-20T13:08:16.388Z,35.60
2018-02-20T13:10:45.925Z,34.90
2018-02-20T13:13:14.209Z,38.00
2018-02-20T13:15:42.940Z,34.93
2018-02-20T13:18:11.225Z,37.70
2018-02-20T13:20:40.981Z,35.50
2018-02-20T13:23:09.463Z,33.60
2018-02-20T13:25:38.153Z,34.30
2018-02-20T13:28:06.932Z,32.40
2018-02-20T13:30:35.290Z,34.47
2018-02-20T13:33:03.564Z,36.97
2018-02-20T13:35:31.837Z,35.77
2018-02-20T13:38:00.219Z,34.90
2018-02-20T13:40:28.535Z,34.37
2018-02-20T13:42:57.088Z,31.30
2018-02-20T13:45:25.368Z,35.10
2018-02-20T13:47:53.648Z,33.80
2018-02-20T13:50:21.928Z,35.40
2018-02-20T13:52:50.292Z,28.57
2018-02-20T13:55:18.773Z,31.70
2018-02-20T13:57:48.508Z,37.93
2018-02-20T14:00:16.988Z,33.27
2018-02-20T14:02:45.260Z,36.67
2018-02-20T14:05:13.543Z,34.07
2018-02-20T14:07:41.835Z,32.70
2018-02-20T14:10:10.103Z,32.40
2018-02-20T14:12:38.667Z,32.03
2018-02-20T14:15:06.932Z,30.50
2018-02-20T14:17:35.195Z,33.70
2018-02-20T14:20:03.632Z,35.87
2018-02-20T14:22:31.899Z,30.50
2018-02-20T14:25:00.188Z,30.60
2018-02-20T14:27:29.330Z,31.80
2018-02-20T14:29:57.635Z,31.20
2018-02-20T14:32:25.951Z,33.07
2018-02-20T14:34:54.280Z,31.10
2018-02-20T14:37:22.554Z,30.17
2018-02-20T14:39:51.695Z,30.07
2018-02-20T14:42:20.304Z,32.63
2018-02-20T14:44:49.367Z,29.40
2018-02-20T14:47:17.874Z,28.70
2018-02-20T14:49:48.476Z,31.53
2018-02-20T14:52:16.744Z,33.37
2018-02-20T14:54:45.053Z,31.33
2018-02-20T14:57:14.007Z,30.40
2018-02-20T14:59:42.286Z,31.20
2018-02-20T15:02:10.780Z,30.57
2018-02-20T15:04:39.058Z,31.43
2018-02-20T15:07:07.449Z,30.10
2018-02-20T15:09:35.747Z,32.27
2018-02-20T15:12:04.411Z,34.70
2018-02-20T15:14:33.231Z,33.47
2018-02-20T15:17:01.545Z,32.87
2018-02-20T15:19:30.660Z,33.90
2018-02-20T15:22:00.077Z,31.23
2018-02-20T15:24:29.184Z,27.50
2018-02-20T15:26:57.856Z,34.03
2018-02-20T15:29:26.124Z,31.07
2018-02-20T15:31:54.494Z,34.70
2018-02-20T15:34:23.500Z,31.93
2018-02-20T15:36:52.831Z,31.50
2018-02-20T15:39:21.133Z,29.97
2018-02-20T15:41:50.748Z,32.30
2018-02-20T15:44:19.788Z,30.00
2018-02-20T15:46:48.063Z,31.30
2018-02-20T15:49:16.340Z,29.40
2018-02-20T15:51:45.040Z,30.27
2018-02-20T15:54:13.500Z,30.73
2018-02-20T15:56:41.831Z,29.40
2018-02-20T15:59:12.850Z,30.67
2018-02-20T16:01:41.121Z,29.47
2018-02-20T16:04:10.117Z,31.03
2018-02-20T16:06:38.825Z,31.90
2018-02-20T16:09:07.321Z,29.07
2018-02-20T16:11:35.640Z,30.30
2018-02-20T16:14:10.050Z,27.03
2018-02-20T16:16:38.366Z,30.23
2018-02-20T16:19:07.809Z,31.27
2018-02-20T16:21:36.968Z,30.40
2018-02-20T16:24:05.363Z,28.83
2018-02-20T16:26:34.032Z,28.83
2018-02-20T16:29:02.311Z,28.50
2018-02-20T16:31:31.932Z,30.67
2018-02-20T16:34:00.218Z,27.17
2018-02-20T16:36:29.537Z,28.43
2018-02-20T16:38:57.821Z,29.53
2018-02-20T16:41:26.975Z,31.00
2018-02-20T16:43:55.339Z,28.10
2018-02-20T16:46:23.628Z,28.97
2018-02-20T16:48:52.024Z,27.87
2018-02-20T16:51:22.881Z,27.43
2018-02-20T16:53:51.941Z,29.70
2018-02-20T16:56:20.674Z,28.03
2018-02-20T16:58:49.005Z,30.80
2018-02-20T17:01:17.388Z,27.20
2018-02-20T17:03:46.176Z,28.37
2018-02-20T17:06:14.529Z,31.10
2018-02-20T17:08:42.815Z,28.10
2018-02-20T17:11:11.592Z,27.23
2018-02-20T17:13:39.889Z,29.63
2018-02-20T17:16:08.169Z,26.10
2018-02-20T17:18:36.559Z,28.37
2018-02-20T17:21:05.448Z,30.47
2018-02-20T17:23:33.720Z,29.70
2018-02-20T17:26:01.987Z,29.47
2018-02-20T17:28:30.397Z,27.40
2018-02-20T17:30:58.785Z,31.23
2018-02-20T17:33:27.239Z,30.93
2018-02-20T17:35:56.410Z,27.60
2018-02-20T17:38:25.963Z,29.60
2018-02-20T17:40:54.357Z,28.80
2018-02-20T17:43:23.499Z,29.50
2018-02-20T17:45:51.906Z,30.97
2018-02-20T17:48:20.185Z,32.20
2018-02-20T17:50:48.468Z,29.70
2018-02-20T17:53:16.799Z,28.93
2018-02-20T17:55:45.837Z,30.43
2018-02-20T17:58:14.120Z,28.83
2018-02-20T18:00:42.645Z,29.83
2018-02-20T18:03:11.350Z,27.47
2018-02-20T18:05:40.480Z,30.87
2018-02-20T18:08:09.000Z,29.07
2018-02-20T18:10:37.265Z,26.83
2018-02-20T18:13:06.473Z,29.57
2018-02-20T18:15:34.773Z,30.70
2018-02-20T18:18:03.839Z,29.60
2018-02-20T18:20:32.119Z,25.80
2018-02-20T18:23:01.116Z,30.10
2018-02-20T18:25:29.677Z,29.07
2018-02-20T18:27:57.981Z,30.00
2018-02-20T18:30:26.278Z,32.17
2018-02-20T18:32:55.068Z,29.90
2018-02-20T18:35:23.594Z,31.47
2018-02-20T18:37:51.897Z,31.63
2018-02-20T18:40:20.169Z,29.63
2018-02-20T18:42:48.496Z,31.90
2018-02-20T18:45:17.776Z,30.27
2018-02-20T18:47:46.067Z,31.07
2018-02-20T18:50:15.145Z,28.30
2018-02-20T18:52:43.495Z,28.93
2018-02-20T18:55:11.778Z,27.47
2018-02-20T18:57:40.102Z,28.37
2018-02-20T19:00:08.437Z,28.00
2018-02-20T19:02:37.276Z,34.73
2018-02-20T19:05:06.344Z,27.50
2018-02-20T19:07:34.624Z,28.67
2018-02-20T19:10:02.920Z,30.60
2018-02-20T19:12:31.230Z,28.70
2018-02-20T19:14:59.536Z,30.80
2018-02-20T19:17:27.964Z,38.63
2018-02-20T19:19:57.947Z,33.27
2018-02-20T19:22:26.853Z,32.07
2018-02-20T19:24:55.571Z,29.47
2018-02-20T19:27:24.604Z,30.30
2018-02-20T19:29:52.932Z,29.47
2018-02-20T19:32:21.592Z,30.07
2018-02-20T19:34:49.903Z,25.80
2018-02-20T19:37:19.013Z,28.53
2018-02-20T19:39:47.653Z,27.87
2018-02-20T19:42:15.949Z,29.10
2018-02-20T19:44:44.589Z,26.70
2018-02-20T19:47:13.106Z,26.47
2018-02-20T19:49:41.387Z,29.90
2018-02-20T19:52:10.075Z,29.90
2018-02-20T19:54:38.728Z,27.53
2018-02-20T19:57:08.601Z,25.37
2018-02-20T19:59:37.676Z,26.10
2018-02-20T20:02:05.972Z,27.30
2018-02-20T20:04:35.046Z,22.27
2018-02-20T20:07:03.368Z,27.47
2018-02-20T20:09:31.783Z,26.20
2018-02-20T20:12:00.185Z,27.43
2018-02-20T20:14:28.505Z,26.10
2018-02-20T20:16:56.782Z,25.90
2018-02-20T20:19:25.112Z,23.77
2018-02-20T20:21:53.681Z,28.40
2018-02-20T20:24:21.977Z,24.20
2018-02-20T20:26:50.262Z,27.10
2018-02-20T20:29:18.560Z,26.50
2018-02-20T20:31:47.629Z,26.47
2018-02-20T20:34:15.939Z,24.80
2018-02-20T20:36:45.900Z,24.07
2018-02-20T20:39:14.256Z,21.80
2018-02-20T20:41:43.280Z,26.30
2018-02-20T20:44:12.016Z,25.30
2018-02-20T20:46:42.455Z,22.60
2018-02-20T20:49:11.500Z,24.77
2018-02-20T20:51:40.377Z,24.20
2018-02-20T20:54:09.840Z,23.50
2018-02-20T20:56:38.901Z,23.87
2018-02-20T20:59:07.608Z,21.20
2018-02-20T21:01:36.621Z,23.37
2018-02-20T21:04:05.679Z,24.50
2018-02-20T21:06:34.057Z,24.83
2018-02-20T21:09:02.368Z,25.00
2018-02-20T21:11:31.837Z,23.77
2018-02-20T21:14:00.107Z,22.37
2018-02-20T21:16:28.489Z,22.90
2018-02-20T21:18:57.276Z,23.30
2018-02-20T21:21:25.600Z,24.40
2018-02-20T21:23:54.817Z,22.67
2018-02-20T21:26:24.652Z,24.70
2018-02-20T21:28:53.661Z,21.63
2018-02-20T21:31:21.941Z,24.37
2018-02-20T21:33:50.259Z,22.90
2018-02-20T21:36:18.566Z,23.83
2018-02-20T21:38:46.860Z,23.13
2018-02-20T21:41:15.563Z,21.80
2018-02-20T21:43:44.567Z,22.13
2018-02-20T21:46:13.493Z,25.27
2018-02-20T21:48:42.565Z,24.07
2018-02-20T21:51:11.251Z,24.77
2018-02-20T21:53:39.620Z,21.50
2018-02-20T21:56:08.090Z,23.90
2018-02-20T21:58:36.368Z,21.13
2018-02-20T22:01:04.680Z,24.27
2018-02-20T22:03:32.978Z,19.70
2018-02-20T22:06:02.141Z,23.10
2018-02-20T22:08:31.020Z,23.20
2018-02-20T22:10:59.336Z,25.07
2018-02-20T22:13:28.389Z,22.67
2018-02-20T22:15:56.772Z,24.67
2018-02-20T22:18:25.389Z,22.60
2018-02-20T22:20:53.712Z,29.23
2018-02-20T22:23:21.988Z,31.60
2018-02-20T22:25:50.280Z,28.67
2018-02-20T22:28:18.794Z,28.20
2018-02-20T22:30:47.124Z,27.43
2018-02-20T22:33:15.403Z,25.60
2018-02-20T22:35:43.696Z,28.20
2018-02-20T22:38:12.021Z,25.37
2018-02-20T22:40:40.291Z,27.30
2018-02-20T22:43:08.572Z,27.67
2018-02-20T22:45:37.739Z,27.20
2018-02-20T22:48:06.648Z,22.30
2018-02-20T22:50:35.409Z,26.07
2018-02-20T22:53:05.331Z,24.30
2018-02-20T22:55:33.704Z,24.00
2018-02-20T22:58:02.261Z,22.13
2018-02-20T23:00:30.608Z,26.70
2018-02-20T23:02:58.938Z,24.60
2018-02-20T23:05:27.222Z,26.57
2018-02-20T23:07:55.608Z,27.20
2018-02-20T23:10:23.908Z,28.83
2018-02-20T23:12:52.818Z,28.00
2018-02-20T23:15:21.105Z,27.43
2018-02-20T23:17:50.164Z,24.30
2018-02-20T23:20:18.728Z,25.70
2018-02-20T23:22:47.596Z,28.47
2018-02-20T23:25:17.268Z,23.53
2018-02-20T23:27:45.932Z,27.60
2018-02-20T23:30:14.250Z,23.73
2018-02-20T23:32:42.870Z,25.00
2018-02-20T23:35:11.177Z,24.80
2018-02-20T23:37:39.564Z,25.00
2018-02-20T23:40:08.460Z,27.50
2018-02-20T23:42:37.129Z,24.73
2018-02-20T23:45:06.176Z,26.77
2018-02-20T23:47:34.496Z,29.47
2018-02-20T23:50:03.423Z,30.00
2018-02-20T23:52:31.916Z,27.90
2018-02-20T23:55:00.228Z,27.10
2018-02-20T23:57:28.524Z,23.63
2018-02-20T23:59:57.882Z,25.80
